ADDS METAR Data INFO
IDs: Format: Raw Decoded Include TAF

Data at: 1413 UTC 12 Dec 2017

KJOT 120915Z AUTO 32008KT 10SM SCT037 M04/M11 A3004 RMK AO2 T10451106
KJOT 120855Z AUTO 32007G14KT 10SM SCT033 BKN039 M04/M09 A3002 RMK AO2 T10401095
KJOT 120835Z AUTO 32009G15KT 290V350 10SM SCT031 BKN039 M03/M09 A3001 RMK AO2 T10351091
KJOT 120815Z AUTO 32013G21KT 10SM -DZ BKN043 M02/M07 A3000 RMK AO2 T10251073
KJOT 120755Z AUTO 32011G25KT 10SM OVC045 M02/M07 A2999 RMK AO2 T10171071
KJOT 120735Z AUTO 34013G20KT 10SM OVC045 M01/M05 A2997 RMK AO2 T10101055
KJOT 120715Z AUTO 32009G15KT 10SM SCT035 OVC043 00/M06 A2996 RMK AO2 T10031061
KJOT 120655Z AUTO 33016G20KT 10SM BKN033 OVC039 00/M05 A2995 RMK AO2 T00001054
KJOT 120635Z AUTO 32005KT 10SM SCT030 OVC035 00/M04 A2994 RMK AO2 T00021045
KJOT 120615Z AUTO 32007KT 10SM OVC035 00/M05 A2994 RMK AO2 T00021047
KJOT 120555Z AUTO 33008G16KT 290V360 10SM SCT027 OVC035 00/M04 A2994 RMK AO2 T00031045 10034 20003
KJOT 120535Z AUTO 33007G17KT 10SM BKN024 BKN028 OVC033 00/M03 A2993 RMK AO2 T00031028
KJOT 120515Z AUTO 34011G19KT 10SM OVC021 00/M03 A2992 RMK AO2 T00031026
KJOT 120455Z AUTO 35012G20KT 10SM OVC021 01/M02 A2991 RMK AO2 T00051025
KJOT 120435Z AUTO 34011G18KT 10SM OVC019 01/M02 A2990 RMK AO2 T00091017
KJOT 120415Z AUTO 33008G15KT 300V360 10SM OVC019 01/M01 A2989 RMK AO2 T00101013
KJOT 120355Z AUTO 33009G18KT 10SM OVC019 01/M01 A2988 RMK AO2 T00101014
KJOT 120335Z AUTO 33011G22KT 10SM OVC017 01/M01 A2987 RMK AO2 T00101012
KJOT 120315Z AUTO 32008G14KT 290V350 10SM OVC017 01/M01 A2986 RMK AO2 T00101007
KJOT 120255Z AUTO 32006KT 290V360 10SM OVC015 01/00 A2985 RMK AO2 T00101005
KJOT 120235Z AUTO 32008KT 10SM OVC015 01/00 A2984 RMK AO2 T00101001
KJOT 120215Z AUTO 31007KT 7SM SCT015 OVC038 01/00 A2982 RMK AO2 T00110000
KJOT 120155Z AUTO 32005KT 7SM BKN036 OVC042 01/00 A2980 RMK AO2 T00110001
KJOT 120135Z AUTO 32004KT 7SM SCT005 BKN046 OVC060 01/01 A2979 RMK AO2 T00110005
KJOT 120115Z AUTO 33004KT 5SM -RA BKN005 OVC050 01/01 A2978 RMK AO2 T00110007
KJOT 120055Z AUTO 32004KT 3SM RA BKN005 OVC011 01/01 A2979 RMK AO2 T00100007
KJOT 120035Z AUTO 34005KT 3SM -RA BKN005 OVC012 01/01 A2978 RMK AO2 T00110006
KJOT 120015Z AUTO 34008KT 3SM +RA SCT007 BKN018 OVC038 02/01 A2977 RMK AO2 T00150005
KJOT 112355Z AUTO 34013G17KT 10SM SCT038 BKN065 OVC090 04/M02 A2976 RMK AO2 6//// T00361017
KJOT 112335Z AUTO 35006KT 10SM BKN080 OVC100 04/M02 A2974 RMK AO2 T00391020
KJOT 112315Z AUTO 34006KT 04/M02 A2973 RMK AO2 T00401020 PWINO
KJOT 112255Z AUTO 35004KT 10SM BKN090 OVC120 04/M02 A2971 RMK AO2 T00401020
KJOT 112235Z AUTO 01004KT 10SM BKN090 BKN120 04/M02 A2970 RMK AO2 T00411020
KJOT 112215Z AUTO 03003KT 04/M02 A2969 RMK AO2 T00421020
KJOT 112155Z AUTO 07003KT 10SM CLR 04/M02 A2968 RMK AO2 T00441019
KJOT 112135Z AUTO 08003KT 10SM 05/M02 A2967 RMK AO2 T00461019
KJOT 112120Z AUTO 07003KT A2966 RMK AO2 PWINO
KJOT 112050Z AUTO 10004KT 10SM 05/M02 A2966 RMK AO2 6//// T00501020
KJOT 112040Z AUTO 11005KT A2966 RMK AO2 PWINO